sensor_id;sensor_type;location;lat;lon;timestamp;P1;durP1;ratioP1;P2;durP2;ratioP2
41099;SDS011;26844;53.686;-6.346;2022-11-20T00:01:44;131.20;;;124.88;;
41099;SDS011;26844;53.686;-6.346;2022-11-20T00:04:10;135.52;;;128.88;;
41099;SDS011;26844;53.686;-6.346;2022-11-20T00:06:36;143.70;;;136.07;;
41099;SDS011;26844;53.686;-6.346;2022-11-20T00:09:01;146.02;;;138.98;;
41099;SDS011;26844;53.686;-6.346;2022-11-20T00:11:27;195.68;;;185.48;;
41099;SDS011;26844;53.686;-6.346;2022-11-20T00:13:54;179.85;;;169.88;;
41099;SDS011;26844;53.686;-6.346;2022-11-20T00:16:21;194.20;;;184.48;;
41099;SDS011;26844;53.686;-6.346;2022-11-20T00:18:46;145.15;;;137.25;;
41099;SDS011;26844;53.686;-6.346;2022-11-20T00:21:13;140.80;;;134.07;;
41099;SDS011;26844;53.686;-6.346;2022-11-20T00:23:38;202.93;;;192.23;;
41099;SDS011;26844;53.686;-6.346;2022-11-20T00:26:05;213.05;;;202.02;;
41099;SDS011;26844;53.686;-6.346;2022-11-20T00:28:30;133.57;;;127.10;;
41099;SDS011;26844;53.686;-6.346;2022-11-20T00:31:06;128.25;;;122.40;;
41099;SDS011;26844;53.686;-6.346;2022-11-20T00:33:31;127.55;;;121.25;;
41099;SDS011;26844;53.686;-6.346;2022-11-20T00:36:04;141.98;;;134.90;;
41099;SDS011;26844;53.686;-6.346;2022-11-20T00:38:30;148.18;;;140.82;;
41099;SDS011;26844;53.686;-6.346;2022-11-20T00:40:58;161.57;;;153.93;;
41099;SDS011;26844;53.686;-6.346;2022-11-20T00:43:24;141.35;;;134.70;;
41099;SDS011;26844;53.686;-6.346;2022-11-20T00:45:49;211.65;;;201.30;;
41099;SDS011;26844;53.686;-6.346;2022-11-20T00:48:15;204.55;;;194.48;;
41099;SDS011;26844;53.686;-6.346;2022-11-20T00:50:40;160.95;;;152.80;;
41099;SDS011;26844;53.686;-6.346;2022-11-20T00:53:06;221.05;;;209.90;;
41099;SDS011;26844;53.686;-6.346;2022-11-20T00:55:31;265.35;;;251.77;;
41099;SDS011;26844;53.686;-6.346;2022-11-20T00:57:56;258.25;;;244.63;;
41099;SDS011;26844;53.686;-6.346;2022-11-20T01:00:22;246.77;;;233.60;;
41099;SDS011;26844;53.686;-6.346;2022-11-20T01:02:47;196.27;;;186.32;;
41099;SDS011;26844;53.686;-6.346;2022-11-20T01:05:12;202.15;;;192.00;;
41099;SDS011;26844;53.686;-6.346;2022-11-20T01:07:37;235.68;;;224.15;;
41099;SDS011;26844;53.686;-6.346;2022-11-20T01:10:02;224.27;;;213.50;;
41099;SDS011;26844;53.686;-6.346;2022-11-20T01:12:28;206.88;;;196.48;;
41099;SDS011;26844;53.686;-6.346;2022-11-20T01:14:53;197.45;;;187.48;;
41099;SDS011;26844;53.686;-6.346;2022-11-20T01:17:19;209.68;;;199.88;;
41099;SDS011;26844;53.686;-6.346;2022-11-20T01:19:44;272.58;;;258.10;;
41099;SDS011;26844;53.686;-6.346;2022-11-20T01:22:09;127.38;;;121.45;;
41099;SDS011;26844;53.686;-6.346;2022-11-20T01:24:34;89.57;;;84.95;;
41099;SDS011;26844;53.686;-6.346;2022-11-20T01:27:00;127.25;;;121.35;;
41099;SDS011;26844;53.686;-6.346;2022-11-20T01:29:25;121.88;;;115.90;;
41099;SDS011;26844;53.686;-6.346;2022-11-20T01:31:50;61.15;;;57.55;;
41099;SDS011;26844;53.686;-6.346;2022-11-20T01:34:17;43.58;;;40.92;;
41099;SDS011;26844;53.686;-6.346;2022-11-20T01:36:43;20.25;;;19.08;;
41099;SDS011;26844;53.686;-6.346;2022-11-20T01:39:14;23.88;;;21.75;;
41099;SDS011;26844;53.686;-6.346;2022-11-20T01:41:40;23.75;;;21.88;;
41099;SDS011;26844;53.686;-6.346;2022-11-20T01:47:08;29.20;;;27.65;;
41099;SDS011;26844;53.686;-6.346;2022-11-20T01:49:44;23.92;;;22.50;;
41099;SDS011;26844;53.686;-6.346;2022-11-20T01:52:20;28.52;;;26.67;;
41099;SDS011;26844;53.686;-6.346;2022-11-20T01:54:49;31.17;;;29.30;;
41099;SDS011;26844;53.686;-6.346;2022-11-20T01:57:17;17.80;;;16.50;;
41099;SDS011;26844;53.686;-6.346;2022-11-20T01:59:44;19.15;;;18.17;;
41099;SDS011;26844;53.686;-6.346;2022-11-20T02:02:12;17.92;;;16.55;;
41099;SDS011;26844;53.686;-6.346;2022-11-20T02:04:37;22.13;;;21.13;;
41099;SDS011;26844;53.686;-6.346;2022-11-20T02:07:02;22.15;;;20.85;;
41099;SDS011;26844;53.686;-6.346;2022-11-20T02:09:29;19.73;;;18.27;;
41099;SDS011;26844;53.686;-6.346;2022-11-20T02:11:54;29.08;;;26.85;;
41099;SDS011;26844;53.686;-6.346;2022-11-20T02:14:20;53.78;;;50.58;;
41099;SDS011;26844;53.686;-6.346;2022-11-20T02:16:49;27.23;;;25.52;;
41099;SDS011;26844;53.686;-6.346;2022-11-20T02:19:28;41.15;;;38.45;;
41099;SDS011;26844;53.686;-6.346;2022-11-20T02:21:57;50.38;;;47.55;;
41099;SDS011;26844;53.686;-6.346;2022-11-20T02:24:23;93.28;;;87.75;;
41099;SDS011;26844;53.686;-6.346;2022-11-20T02:29:26;84.38;;;79.53;;
41099;SDS011;26844;53.686;-6.346;2022-11-20T02:31:52;104.43;;;99.20;;
41099;SDS011;26844;53.686;-6.346;2022-11-20T02:34:19;85.70;;;81.28;;
41099;SDS011;26844;53.686;-6.346;2022-11-20T02:36:44;26.20;;;24.17;;
41099;SDS011;26844;53.686;-6.346;2022-11-20T02:39:09;30.92;;;28.77;;
41099;SDS011;26844;53.686;-6.346;2022-11-20T02:41:36;35.50;;;32.75;;
41099;SDS011;26844;53.686;-6.346;2022-11-20T02:44:02;34.38;;;32.30;;
41099;SDS011;26844;53.686;-6.346;2022-11-20T02:46:27;75.18;;;71.35;;
41099;SDS011;26844;53.686;-6.346;2022-11-20T02:48:53;19.08;;;17.67;;
41099;SDS011;26844;53.686;-6.346;2022-11-20T02:51:18;21.85;;;20.52;;
41099;SDS011;26844;53.686;-6.346;2022-11-20T02:53:43;40.88;;;38.60;;
41099;SDS011;26844;53.686;-6.346;2022-11-20T02:56:09;22.02;;;20.63;;
41099;SDS011;26844;53.686;-6.346;2022-11-20T02:58:34;41.65;;;39.40;;
41099;SDS011;26844;53.686;-6.346;2022-11-20T03:00:59;22.35;;;20.83;;
41099;SDS011;26844;53.686;-6.346;2022-11-20T03:03:24;23.88;;;22.40;;
41099;SDS011;26844;53.686;-6.346;2022-11-20T03:05:49;26.10;;;24.15;;
41099;SDS011;26844;53.686;-6.346;2022-11-20T03:08:15;28.30;;;26.23;;
41099;SDS011;26844;53.686;-6.346;2022-11-20T03:10:40;21.15;;;19.38;;
41099;SDS011;26844;53.686;-6.346;2022-11-20T03:13:05;27.98;;;24.98;;
41099;SDS011;26844;53.686;-6.346;2022-11-20T03:15:30;16.25;;;14.88;;
41099;SDS011;26844;53.686;-6.346;2022-11-20T03:17:56;41.58;;;39.45;;
41099;SDS011;26844;53.686;-6.346;2022-11-20T03:20:21;23.83;;;21.88;;
41099;SDS011;26844;53.686;-6.346;2022-11-20T03:22:46;41.47;;;39.10;;
41099;SDS011;26844;53.686;-6.346;2022-11-20T03:25:12;35.08;;;33.22;;
41099;SDS011;26844;53.686;-6.346;2022-11-20T03:27:37;23.60;;;22.08;;
41099;SDS011;26844;53.686;-6.346;2022-11-20T03:30:02;30.73;;;28.77;;
41099;SDS011;26844;53.686;-6.346;2022-11-20T03:32:28;39.65;;;37.38;;
41099;SDS011;26844;53.686;-6.346;2022-11-20T03:34:53;42.97;;;40.70;;
41099;SDS011;26844;53.686;-6.346;2022-11-20T03:37:18;63.42;;;60.05;;
41099;SDS011;26844;53.686;-6.346;2022-11-20T03:39:44;48.35;;;45.70;;
41099;SDS011;26844;53.686;-6.346;2022-11-20T03:42:09;29.77;;;27.65;;
41099;SDS011;26844;53.686;-6.346;2022-11-20T03:44:54;54.45;;;51.17;;
41099;SDS011;26844;53.686;-6.346;2022-11-20T03:47:20;34.78;;;32.78;;
41099;SDS011;26844;53.686;-6.346;2022-11-20T03:49:45;22.75;;;21.38;;
41099;SDS011;26844;53.686;-6.346;2022-11-20T03:52:10;23.27;;;21.05;;
41099;SDS011;26844;53.686;-6.346;2022-11-20T03:54:35;12.48;;;11.88;;
41099;SDS011;26844;53.686;-6.346;2022-11-20T03:57:01;26.85;;;25.40;;
41099;SDS011;26844;53.686;-6.346;2022-11-20T03:59:26;24.80;;;23.25;;
41099;SDS011;26844;53.686;-6.346;2022-11-20T04:01:51;21.42;;;20.20;;
41099;SDS011;26844;53.686;-6.346;2022-11-20T04:04:16;28.85;;;26.77;;
41099;SDS011;26844;53.686;-6.346;2022-11-20T04:06:42;37.67;;;35.30;;
41099;SDS011;26844;53.686;-6.346;2022-11-20T04:09:07;37.30;;;35.05;;
41099;SDS011;26844;53.686;-6.346;2022-11-20T04:11:33;44.65;;;42.28;;
41099;SDS011;26844;53.686;-6.346;2022-11-20T04:14:00;20.20;;;18.75;;
41099;SDS011;26844;53.686;-6.346;2022-11-20T04:16:26;20.77;;;19.10;;
41099;SDS011;26844;53.686;-6.346;2022-11-20T04:18:54;51.97;;;48.97;;
41099;SDS011;26844;53.686;-6.346;2022-11-20T04:21:19;39.65;;;37.13;;
41099;SDS011;26844;53.686;-6.346;2022-11-20T04:23:45;27.73;;;26.15;;
41099;SDS011;26844;53.686;-6.346;2022-11-20T04:26:11;18.35;;;17.13;;
41099;SDS011;26844;53.686;-6.346;2022-11-20T04:28:36;38.38;;;35.92;;
41099;SDS011;26844;53.686;-6.346;2022-11-20T04:31:03;38.05;;;35.88;;
41099;SDS011;26844;53.686;-6.346;2022-11-20T04:33:28;37.95;;;36.20;;
41099;SDS011;26844;53.686;-6.346;2022-11-20T04:35:53;40.78;;;38.28;;
41099;SDS011;26844;53.686;-6.346;2022-11-20T04:38:19;50.85;;;47.55;;
41099;SDS011;26844;53.686;-6.346;2022-11-20T04:40:44;43.15;;;40.30;;
41099;SDS011;26844;53.686;-6.346;2022-11-20T04:43:09;38.40;;;36.25;;
41099;SDS011;26844;53.686;-6.346;2022-11-20T04:45:34;38.85;;;36.25;;
41099;SDS011;26844;53.686;-6.346;2022-11-20T04:48:00;27.58;;;25.65;;
41099;SDS011;26844;53.686;-6.346;2022-11-20T04:50:25;39.75;;;37.25;;
41099;SDS011;26844;53.686;-6.346;2022-11-20T04:52:50;41.08;;;38.88;;
41099;SDS011;26844;53.686;-6.346;2022-11-20T04:55:15;40.05;;;37.75;;
41099;SDS011;26844;53.686;-6.346;2022-11-20T04:57:41;17.88;;;16.80;;
41099;SDS011;26844;53.686;-6.346;2022-11-20T05:00:06;21.05;;;18.27;;
41099;SDS011;26844;53.686;-6.346;2022-11-20T05:02:31;36.17;;;34.17;;
41099;SDS011;26844;53.686;-6.346;2022-11-20T05:04:57;49.22;;;46.53;;
41099;SDS011;26844;53.686;-6.346;2022-11-20T05:07:22;30.42;;;28.30;;
41099;SDS011;26844;53.686;-6.346;2022-11-20T05:09:47;39.17;;;36.80;;
41099;SDS011;26844;53.686;-6.346;2022-11-20T05:12:12;33.97;;;31.88;;
41099;SDS011;26844;53.686;-6.346;2022-11-20T05:14:38;68.65;;;64.93;;
41099;SDS011;26844;53.686;-6.346;2022-11-20T05:17:03;36.60;;;34.53;;
41099;SDS011;26844;53.686;-6.346;2022-11-20T05:19:28;46.78;;;44.20;;
41099;SDS011;26844;53.686;-6.346;2022-11-20T05:21:53;51.90;;;49.10;;
41099;SDS011;26844;53.686;-6.346;2022-11-20T05:24:18;55.65;;;52.92;;
41099;SDS011;26844;53.686;-6.346;2022-11-20T05:26:44;45.03;;;42.25;;
41099;SDS011;26844;53.686;-6.346;2022-11-20T05:29:10;63.83;;;60.65;;
41099;SDS011;26844;53.686;-6.346;2022-11-20T05:31:35;49.03;;;46.53;;
41099;SDS011;26844;53.686;-6.346;2022-11-20T05:34:02;52.08;;;49.22;;
41099;SDS011;26844;53.686;-6.346;2022-11-20T05:36:27;51.13;;;48.42;;
41099;SDS011;26844;53.686;-6.346;2022-11-20T05:38:52;37.28;;;35.30;;
41099;SDS011;26844;53.686;-6.346;2022-11-20T05:41:18;43.17;;;40.88;;
41099;SDS011;26844;53.686;-6.346;2022-11-20T05:43:44;41.40;;;39.00;;
41099;SDS011;26844;53.686;-6.346;2022-11-20T05:46:10;31.90;;;29.45;;
41099;SDS011;26844;53.686;-6.346;2022-11-20T05:48:36;42.63;;;40.35;;
41099;SDS011;26844;53.686;-6.346;2022-11-20T05:51:03;40.08;;;37.47;;
41099;SDS011;26844;53.686;-6.346;2022-11-20T05:53:28;36.08;;;34.38;;
41099;SDS011;26844;53.686;-6.346;2022-11-20T05:56:00;34.60;;;32.40;;
41099;SDS011;26844;53.686;-6.346;2022-11-20T05:58:26;34.67;;;32.88;;
41099;SDS011;26844;53.686;-6.346;2022-11-20T06:00:51;35.90;;;34.20;;
41099;SDS011;26844;53.686;-6.346;2022-11-20T06:03:17;34.60;;;32.78;;
41099;SDS011;26844;53.686;-6.346;2022-11-20T06:05:42;39.80;;;36.92;;
41099;SDS011;26844;53.686;-6.346;2022-11-20T06:08:07;46.47;;;44.05;;
41099;SDS011;26844;53.686;-6.346;2022-11-20T06:10:32;34.58;;;32.88;;
41099;SDS011;26844;53.686;-6.346;2022-11-20T06:12:58;32.80;;;30.55;;
41099;SDS011;26844;53.686;-6.346;2022-11-20T06:15:23;40.45;;;38.15;;
41099;SDS011;26844;53.686;-6.346;2022-11-20T06:17:51;36.72;;;34.28;;
41099;SDS011;26844;53.686;-6.346;2022-11-20T06:20:17;46.47;;;43.80;;
41099;SDS011;26844;53.686;-6.346;2022-11-20T06:22:42;45.15;;;42.33;;
41099;SDS011;26844;53.686;-6.346;2022-11-20T06:25:07;45.90;;;43.00;;
41099;SDS011;26844;53.686;-6.346;2022-11-20T06:27:32;56.67;;;54.08;;
41099;SDS011;26844;53.686;-6.346;2022-11-20T06:29:58;38.80;;;36.67;;
41099;SDS011;26844;53.686;-6.346;2022-11-20T06:32:23;54.25;;;51.53;;
41099;SDS011;26844;53.686;-6.346;2022-11-20T06:34:48;43.00;;;40.53;;
41099;SDS011;26844;53.686;-6.346;2022-11-20T06:37:13;57.13;;;54.38;;
41099;SDS011;26844;53.686;-6.346;2022-11-20T06:39:39;39.92;;;37.25;;
41099;SDS011;26844;53.686;-6.346;2022-11-20T06:42:04;42.17;;;39.95;;
41099;SDS011;26844;53.686;-6.346;2022-11-20T06:44:29;42.67;;;40.45;;
41099;SDS011;26844;53.686;-6.346;2022-11-20T06:46:54;35.30;;;32.58;;
41099;SDS011;26844;53.686;-6.346;2022-11-20T06:49:19;40.33;;;37.28;;
41099;SDS011;26844;53.686;-6.346;2022-11-20T06:51:45;41.28;;;39.08;;
41099;SDS011;26844;53.686;-6.346;2022-11-20T06:54:10;47.53;;;44.92;;
41099;SDS011;26844;53.686;-6.346;2022-11-20T06:56:35;46.20;;;43.15;;
41099;SDS011;26844;53.686;-6.346;2022-11-20T06:59:03;41.47;;;39.28;;
41099;SDS011;26844;53.686;-6.346;2022-11-20T07:01:28;36.25;;;33.90;;
41099;SDS011;26844;53.686;-6.346;2022-11-20T07:03:54;41.67;;;39.38;;
41099;SDS011;26844;53.686;-6.346;2022-11-20T07:06:19;46.67;;;44.35;;
41099;SDS011;26844;53.686;-6.346;2022-11-20T07:08:44;37.03;;;34.58;;
41099;SDS011;26844;53.686;-6.346;2022-11-20T07:11:13;47.20;;;44.83;;
41099;SDS011;26844;53.686;-6.346;2022-11-20T07:13:38;43.55;;;41.13;;
41099;SDS011;26844;53.686;-6.346;2022-11-20T07:16:04;36.33;;;34.17;;
41099;SDS011;26844;53.686;-6.346;2022-11-20T07:18:30;44.83;;;42.63;;
41099;SDS011;26844;53.686;-6.346;2022-11-20T07:20:55;59.53;;;56.70;;
41099;SDS011;26844;53.686;-6.346;2022-11-20T07:23:21;48.88;;;45.75;;
41099;SDS011;26844;53.686;-6.346;2022-11-20T07:25:46;46.78;;;43.92;;
41099;SDS011;26844;53.686;-6.346;2022-11-20T07:28:11;43.30;;;40.90;;
41099;SDS011;26844;53.686;-6.346;2022-11-20T07:30:37;43.50;;;41.50;;
41099;SDS011;26844;53.686;-6.346;2022-11-20T07:33:02;38.63;;;35.20;;
41099;SDS011;26844;53.686;-6.346;2022-11-20T07:35:28;39.35;;;37.05;;
41099;SDS011;26844;53.686;-6.346;2022-11-20T07:37:53;41.00;;;38.92;;
41099;SDS011;26844;53.686;-6.346;2022-11-20T07:40:18;42.10;;;39.50;;
41099;SDS011;26844;53.686;-6.346;2022-11-20T07:42:47;36.85;;;34.55;;
41099;SDS011;26844;53.686;-6.346;2022-11-20T07:45:12;40.08;;;37.17;;
41099;SDS011;26844;53.686;-6.346;2022-11-20T07:47:37;41.35;;;39.40;;
41099;SDS011;26844;53.686;-6.346;2022-11-20T07:50:03;45.17;;;42.75;;
41099;SDS011;26844;53.686;-6.346;2022-11-20T07:52:28;31.33;;;29.67;;
41099;SDS011;26844;53.686;-6.346;2022-11-20T07:54:53;37.03;;;35.10;;
41099;SDS011;26844;53.686;-6.346;2022-11-20T07:57:18;47.90;;;44.95;;
41099;SDS011;26844;53.686;-6.346;2022-11-20T07:59:44;37.60;;;35.58;;
41099;SDS011;26844;53.686;-6.346;2022-11-20T08:02:10;29.73;;;27.92;;
41099;SDS011;26844;53.686;-6.346;2022-11-20T08:04:36;39.67;;;37.55;;
41099;SDS011;26844;53.686;-6.346;2022-11-20T08:07:01;34.58;;;32.30;;
41099;SDS011;26844;53.686;-6.346;2022-11-20T08:09:26;31.67;;;30.17;;
41099;SDS011;26844;53.686;-6.346;2022-11-20T08:11:51;46.10;;;43.38;;
41099;SDS011;26844;53.686;-6.346;2022-11-20T08:14:49;36.53;;;34.70;;
41099;SDS011;26844;53.686;-6.346;2022-11-20T08:17:14;25.42;;;23.67;;
41099;SDS011;26844;53.686;-6.346;2022-11-20T08:19:39;32.08;;;30.15;;
41099;SDS011;26844;53.686;-6.346;2022-11-20T08:22:05;28.90;;;26.92;;
41099;SDS011;26844;53.686;-6.346;2022-11-20T08:24:30;30.70;;;29.10;;
41099;SDS011;26844;53.686;-6.346;2022-11-20T08:26:57;23.60;;;21.83;;
41099;SDS011;26844;53.686;-6.346;2022-11-20T08:29:22;34.88;;;32.75;;
41099;SDS011;26844;53.686;-6.346;2022-11-20T08:31:48;46.00;;;43.17;;
41099;SDS011;26844;53.686;-6.346;2022-11-20T08:34:13;41.58;;;39.13;;
41099;SDS011;26844;53.686;-6.346;2022-11-20T08:36:38;46.72;;;44.33;;
41099;SDS011;26844;53.686;-6.346;2022-11-20T08:39:03;42.17;;;40.22;;
41099;SDS011;26844;53.686;-6.346;2022-11-20T08:41:29;45.83;;;42.80;;
41099;SDS011;26844;53.686;-6.346;2022-11-20T08:43:58;42.45;;;40.15;;
41099;SDS011;26844;53.686;-6.346;2022-11-20T08:46:24;31.83;;;30.25;;
41099;SDS011;26844;53.686;-6.346;2022-11-20T08:48:50;46.65;;;44.35;;
41099;SDS011;26844;53.686;-6.346;2022-11-20T08:51:16;31.63;;;29.33;;
41099;SDS011;26844;53.686;-6.346;2022-11-20T08:53:41;42.25;;;39.80;;
41099;SDS011;26844;53.686;-6.346;2022-11-20T08:56:06;34.90;;;32.58;;
41099;SDS011;26844;53.686;-6.346;2022-11-20T08:58:32;38.47;;;36.38;;
41099;SDS011;26844;53.686;-6.346;2022-11-20T09:00:57;41.17;;;39.17;;
41099;SDS011;26844;53.686;-6.346;2022-11-20T09:03:22;31.73;;;29.63;;
41099;SDS011;26844;53.686;-6.346;2022-11-20T09:05:48;31.17;;;28.33;;
41099;SDS011;26844;53.686;-6.346;2022-11-20T09:08:13;20.17;;;19.00;;
41099;SDS011;26844;53.686;-6.346;2022-11-20T09:10:38;29.55;;;27.98;;
41099;SDS011;26844;53.686;-6.346;2022-11-20T09:15:31;38.97;;;36.95;;
41099;SDS011;26844;53.686;-6.346;2022-11-20T09:17:58;67.55;;;63.78;;
41099;SDS011;26844;53.686;-6.346;2022-11-20T09:20:23;32.17;;;30.73;;
41099;SDS011;26844;53.686;-6.346;2022-11-20T09:22:48;29.27;;;27.80;;
41099;SDS011;26844;53.686;-6.346;2022-11-20T09:25:14;43.85;;;41.45;;
41099;SDS011;26844;53.686;-6.346;2022-11-20T09:27:39;35.70;;;33.22;;
41099;SDS011;26844;53.686;-6.346;2022-11-20T09:30:06;40.30;;;37.15;;
41099;SDS011;26844;53.686;-6.346;2022-11-20T09:32:32;28.92;;;27.35;;
41099;SDS011;26844;53.686;-6.346;2022-11-20T09:34:57;39.38;;;37.08;;
41099;SDS011;26844;53.686;-6.346;2022-11-20T09:37:22;38.55;;;35.60;;
41099;SDS011;26844;53.686;-6.346;2022-11-20T09:39:47;47.55;;;45.33;;
41099;SDS011;26844;53.686;-6.346;2022-11-20T09:54:52;42.83;;;40.70;;
41099;SDS011;26844;53.686;-6.346;2022-11-20T09:57:18;44.70;;;42.15;;
41099;SDS011;26844;53.686;-6.346;2022-11-20T09:59:53;46.00;;;43.25;;
41099;SDS011;26844;53.686;-6.346;2022-11-20T10:02:27;211.10;;;195.73;;
41099;SDS011;26844;53.686;-6.346;2022-11-20T10:05:10;201.93;;;186.48;;
41099;SDS011;26844;53.686;-6.346;2022-11-20T10:10:03;77.70;;;73.25;;
41099;SDS011;26844;53.686;-6.346;2022-11-20T10:12:53;52.08;;;49.53;;
41099;SDS011;26844;53.686;-6.346;2022-11-20T10:23:28;470.77;;;432.83;;
41099;SDS011;26844;53.686;-6.346;2022-11-20T10:26:03;166.77;;;154.40;;
41099;SDS011;26844;53.686;-6.346;2022-11-20T10:31:01;247.18;;;227.15;;
41099;SDS011;26844;53.686;-6.346;2022-11-20T10:33:29;623.22;;;567.30;;
41099;SDS011;26844;53.686;-6.346;2022-11-20T10:35:59;235.23;;;216.85;;
41099;SDS011;26844;53.686;-6.346;2022-11-20T10:38:26;115.57;;;109.80;;
41099;SDS011;26844;53.686;-6.346;2022-11-20T10:40:57;99.03;;;94.07;;
41099;SDS011;26844;53.686;-6.346;2022-11-20T10:43:44;109.78;;;103.78;;
41099;SDS011;26844;53.686;-6.346;2022-11-20T10:46:14;112.35;;;106.20;;
41099;SDS011;26844;53.686;-6.346;2022-11-20T10:48:40;100.28;;;94.82;;
41099;SDS011;26844;53.686;-6.346;2022-11-20T10:56:14;75.78;;;71.78;;
41099;SDS011;26844;53.686;-6.346;2022-11-20T10:58:45;87.32;;;82.60;;
41099;SDS011;26844;53.686;-6.346;2022-11-20T11:01:16;132.07;;;124.40;;
41099;SDS011;26844;53.686;-6.346;2022-11-20T11:03:42;87.70;;;83.15;;
41099;SDS011;26844;53.686;-6.346;2022-11-20T11:06:11;86.18;;;81.75;;
41099;SDS011;26844;53.686;-6.346;2022-11-20T11:08:39;111.68;;;106.25;;
41099;SDS011;26844;53.686;-6.346;2022-11-20T11:11:23;139.68;;;131.07;;
41099;SDS011;26844;53.686;-6.346;2022-11-20T11:13:49;104.95;;;99.88;;
41099;SDS011;26844;53.686;-6.346;2022-11-20T11:16:25;159.50;;;149.68;;
41099;SDS011;26844;53.686;-6.346;2022-11-20T11:18:50;117.45;;;111.18;;
41099;SDS011;26844;53.686;-6.346;2022-11-20T11:21:22;79.43;;;75.57;;
41099;SDS011;26844;53.686;-6.346;2022-11-20T11:23:56;116.90;;;109.95;;
41099;SDS011;26844;53.686;-6.346;2022-11-20T11:26:22;215.25;;;199.38;;
41099;SDS011;26844;53.686;-6.346;2022-11-20T11:28:54;292.38;;;271.17;;
41099;SDS011;26844;53.686;-6.346;2022-11-20T11:31:26;41.58;;;39.53;;
41099;SDS011;26844;53.686;-6.346;2022-11-20T11:33:52;73.63;;;69.90;;
41099;SDS011;26844;53.686;-6.346;2022-11-20T11:36:18;46.92;;;44.38;;
41099;SDS011;26844;53.686;-6.346;2022-11-20T11:38:44;36.55;;;34.97;;
41099;SDS011;26844;53.686;-6.346;2022-11-20T11:41:12;46.70;;;44.65;;
41099;SDS011;26844;53.686;-6.346;2022-11-20T11:43:40;73.93;;;69.82;;
41099;SDS011;26844;53.686;-6.346;2022-11-20T11:46:33;101.80;;;94.97;;
41099;SDS011;26844;53.686;-6.346;2022-11-20T11:51:30;35.88;;;34.17;;
41099;SDS011;26844;53.686;-6.346;2022-11-20T11:53:58;73.38;;;68.82;;
41099;SDS011;26844;53.686;-6.346;2022-11-20T11:56:23;83.10;;;76.60;;
41099;SDS011;26844;53.686;-6.346;2022-11-20T11:58:51;35.28;;;33.60;;
41099;SDS011;26844;53.686;-6.346;2022-11-20T12:03:42;226.05;;;207.48;;
41099;SDS011;26844;53.686;-6.346;2022-11-20T12:06:11;99.75;;;92.95;;
41099;SDS011;26844;53.686;-6.346;2022-11-20T12:08:46;43.00;;;41.00;;
41099;SDS011;26844;53.686;-6.346;2022-11-20T12:16:22;29.88;;;28.60;;
41099;SDS011;26844;53.686;-6.346;2022-11-20T12:18:49;29.15;;;27.83;;
41099;SDS011;26844;53.686;-6.346;2022-11-20T12:23:53;54.58;;;52.15;;
41099;SDS011;26844;53.686;-6.346;2022-11-20T12:31:50;108.18;;;102.32;;
41099;SDS011;26844;53.686;-6.346;2022-11-20T12:34:27;97.40;;;92.28;;
41099;SDS011;26844;53.686;-6.346;2022-11-20T12:39:42;120.70;;;114.03;;
41099;SDS011;26844;53.686;-6.346;2022-11-20T12:52:44;65.90;;;62.38;;
41099;SDS011;26844;53.686;-6.346;2022-11-20T12:55:16;80.70;;;76.78;;
41099;SDS011;26844;53.686;-6.346;2022-11-20T13:00:18;138.50;;;129.75;;
41099;SDS011;26844;53.686;-6.346;2022-11-20T13:05:37;31.83;;;30.48;;
41099;SDS011;26844;53.686;-6.346;2022-11-20T13:08:04;50.92;;;48.53;;
41099;SDS011;26844;53.686;-6.346;2022-11-20T13:10:38;73.40;;;69.75;;
41099;SDS011;26844;53.686;-6.346;2022-11-20T13:18:08;100.18;;;95.15;;
41099;SDS011;26844;53.686;-6.346;2022-11-20T13:20:35;56.15;;;53.33;;
41099;SDS011;26844;53.686;-6.346;2022-11-20T13:23:01;43.88;;;41.67;;
41099;SDS011;26844;53.686;-6.346;2022-11-20T13:25:30;33.15;;;31.70;;
41099;SDS011;26844;53.686;-6.346;2022-11-20T13:27:56;66.43;;;63.38;;
41099;SDS011;26844;53.686;-6.346;2022-11-20T13:30:22;143.30;;;134.45;;
41099;SDS011;26844;53.686;-6.346;2022-11-20T13:32:48;29.05;;;27.65;;
41099;SDS011;26844;53.686;-6.346;2022-11-20T13:35:23;128.50;;;121.13;;
41099;SDS011;26844;53.686;-6.346;2022-11-20T13:37:48;132.68;;;124.43;;
41099;SDS011;26844;53.686;-6.346;2022-11-20T13:40:23;100.40;;;94.68;;
41099;SDS011;26844;53.686;-6.346;2022-11-20T13:43:10;55.10;;;52.35;;
41099;SDS011;26844;53.686;-6.346;2022-11-20T13:45:39;51.08;;;48.47;;
41099;SDS011;26844;53.686;-6.346;2022-11-20T13:48:16;16.63;;;15.82;;
41099;SDS011;26844;53.686;-6.346;2022-11-20T13:50:46;20.92;;;19.98;;
41099;SDS011;26844;53.686;-6.346;2022-11-20T13:53:38;217.95;;;203.07;;
41099;SDS011;26844;53.686;-6.346;2022-11-20T13:55:59;28.75;;;27.35;;
41099;SDS011;26844;53.686;-6.346;2022-11-20T14:01:19;37.35;;;35.67;;
41099;SDS011;26844;53.686;-6.346;2022-11-20T14:03:45;31.48;;;30.05;;
41099;SDS011;26844;53.686;-6.346;2022-11-20T14:06:13;22.73;;;21.77;;
41099;SDS011;26844;53.686;-6.346;2022-11-20T14:08:47;29.40;;;28.00;;
41099;SDS011;26844;53.686;-6.346;2022-11-20T14:11:14;148.07;;;138.88;;
41099;SDS011;26844;53.686;-6.346;2022-11-20T14:13:50;322.42;;;298.92;;
41099;SDS011;26844;53.686;-6.346;2022-11-20T14:16:19;61.78;;;58.88;;
41099;SDS011;26844;53.686;-6.346;2022-11-20T14:18:44;88.82;;;84.32;;
41099;SDS011;26844;53.686;-6.346;2022-11-20T14:21:09;91.70;;;86.72;;
41099;SDS011;26844;53.686;-6.346;2022-11-20T14:23:35;51.33;;;49.08;;
41099;SDS011;26844;53.686;-6.346;2022-11-20T14:26:00;47.50;;;45.40;;
41099;SDS011;26844;53.686;-6.346;2022-11-20T14:28:29;39.35;;;37.30;;
41099;SDS011;26844;53.686;-6.346;2022-11-20T14:30:55;51.83;;;49.28;;
41099;SDS011;26844;53.686;-6.346;2022-11-20T14:33:21;96.68;;;91.15;;
41099;SDS011;26844;53.686;-6.346;2022-11-20T14:35:53;60.13;;;57.33;;
41099;SDS011;26844;53.686;-6.346;2022-11-20T14:38:25;28.15;;;26.83;;
41099;SDS011;26844;53.686;-6.346;2022-11-20T14:40:51;47.75;;;45.53;;
41099;SDS011;26844;53.686;-6.346;2022-11-20T14:45:42;47.17;;;44.97;;
41099;SDS011;26844;53.686;-6.346;2022-11-20T14:48:08;54.78;;;51.97;;
41099;SDS011;26844;53.686;-6.346;2022-11-20T14:50:34;40.67;;;38.70;;
41099;SDS011;26844;53.686;-6.346;2022-11-20T14:53:03;37.92;;;36.13;;
41099;SDS011;26844;53.686;-6.346;2022-11-20T14:55:29;46.63;;;44.42;;
41099;SDS011;26844;53.686;-6.346;2022-11-20T14:57:56;48.45;;;45.78;;
41099;SDS011;26844;53.686;-6.346;2022-11-20T15:00:22;11.07;;;10.33;;
41099;SDS011;26844;53.686;-6.346;2022-11-20T15:02:48;52.30;;;49.97;;
41099;SDS011;26844;53.686;-6.346;2022-11-20T15:05:14;38.75;;;37.05;;
41099;SDS011;26844;53.686;-6.346;2022-11-20T15:07:43;51.78;;;49.38;;
41099;SDS011;26844;53.686;-6.346;2022-11-20T15:12:40;55.03;;;52.50;;
41099;SDS011;26844;53.686;-6.346;2022-11-20T15:15:11;32.63;;;30.52;;
41099;SDS011;26844;53.686;-6.346;2022-11-20T15:17:37;27.35;;;26.15;;
41099;SDS011;26844;53.686;-6.346;2022-11-20T15:20:05;29.55;;;28.17;;
41099;SDS011;26844;53.686;-6.346;2022-11-20T15:22:34;41.08;;;39.22;;
41099;SDS011;26844;53.686;-6.346;2022-11-20T15:24:59;38.92;;;36.97;;
41099;SDS011;26844;53.686;-6.346;2022-11-20T15:27:25;19.48;;;18.60;;
41099;SDS011;26844;53.686;-6.346;2022-11-20T15:29:50;13.45;;;12.70;;
41099;SDS011;26844;53.686;-6.346;2022-11-20T15:32:16;13.40;;;12.80;;